createdAt,value
2022-12-31T00:01:46.951Z,100.00
2022-12-31T00:04:13.597Z,100.00
2022-12-31T00:06:40.213Z,100.00
2022-12-31T00:09:08.105Z,100.00
2022-12-31T00:11:37.455Z,100.00
2022-12-31T00:14:04.980Z,100.00
2022-12-31T00:16:36.742Z,100.00
2022-12-31T00:19:07.005Z,100.00
2022-12-31T00:21:35.036Z,100.00
2022-12-31T00:24:02.468Z,100.00
2022-12-31T00:26:31.137Z,100.00
2022-12-31T09:35:30.522Z,100.00
2022-12-31T09:38:30.409Z,100.00
2022-12-31T09:41:36.571Z,100.00
2022-12-31T09:44:53.025Z,100.00
2022-12-31T09:47:53.992Z,100.00
2022-12-31T09:50:57.571Z,100.00
2022-12-31T09:53:40.779Z,100.00
2022-12-31T09:56:35.346Z,100.00
2022-12-31T09:59:10.521Z,100.00
2022-12-31T10:01:59.834Z,100.00
2022-12-31T10:04:49.701Z,100.00
2022-12-31T10:07:28.308Z,100.00
2022-12-31T10:10:13.225Z,100.00
2022-12-31T10:13:21.054Z,100.00
2022-12-31T10:16:28.898Z,100.00
2022-12-31T10:19:26.731Z,100.00
2022-12-31T10:21:53.352Z,100.00
2022-12-31T10:24:50.676Z,100.00
2022-12-31T10:27:33.304Z,100.00
2022-12-31T10:30:16.878Z,100.00
2022-12-31T10:33:16.563Z,100.00
2022-12-31T10:35:56.145Z,100.00
2022-12-31T10:38:34.083Z,100.00
2022-12-31T10:41:41.879Z,100.00
2022-12-31T10:44:08.520Z,100.00
2022-12-31T10:46:53.528Z,100.00
2022-12-31T10:49:29.015Z,100.00
2022-12-31T10:52:18.035Z,100.00
2022-12-31T10:55:02.733Z,100.00
2022-12-31T10:57:44.710Z,100.00
2022-12-31T11:00:19.957Z,100.00
2022-12-31T11:03:37.076Z,100.00
2022-12-31T11:06:27.053Z,100.00
2022-12-31T11:08:57.931Z,100.00
2022-12-31T11:11:55.050Z,100.00
2022-12-31T11:14:39.614Z,100.00
2022-12-31T11:17:21.107Z,100.00
2022-12-31T11:20:12.317Z,100.00
2022-12-31T11:22:58.452Z,100.00
2022-12-31T11:25:34.133Z,100.00
2022-12-31T11:28:06.722Z,100.00
2022-12-31T11:30:42.240Z,100.00
2022-12-31T11:33:36.036Z,100.00
2022-12-31T11:36:30.089Z,100.00
2022-12-31T11:39:35.598Z,100.00
2022-12-31T11:42:14.825Z,100.00
2022-12-31T11:44:57.493Z,100.00
2022-12-31T11:48:04.223Z,100.00
2022-12-31T11:51:00.131Z,100.00
2022-12-31T11:53:26.601Z,100.00
2022-12-31T11:55:59.189Z,100.00
2022-12-31T11:58:29.508Z,100.00
2022-12-31T12:01:00.930Z,100.00
2022-12-31T12:03:28.171Z,100.00
2022-12-31T12:05:57.499Z,98.17
2022-12-31T12:08:25.787Z,97.50
2022-12-31T12:11:05.199Z,96.99
2022-12-31T12:13:33.483Z,95.52
2022-12-31T12:16:03.488Z,95.77
2022-12-31T12:18:36.955Z,93.17
2022-12-31T12:21:25.271Z,93.74
2022-12-31T12:23:55.472Z,93.16
2022-12-31T12:26:36.841Z,92.60
2022-12-31T12:29:18.630Z,92.85
2022-12-31T12:32:00.518Z,93.23
2022-12-31T12:34:37.344Z,93.67
2022-12-31T12:37:04.887Z,94.48
2022-12-31T12:39:34.490Z,95.10
2022-12-31T12:42:10.427Z,94.58
2022-12-31T12:44:37.440Z,91.93
2022-12-31T12:47:06.916Z,90.07
2022-12-31T12:49:43.971Z,90.40
2022-12-31T12:52:42.976Z,90.26
2022-12-31T12:55:41.107Z,90.39
2022-12-31T12:58:07.653Z,91.77
2022-12-31T13:00:40.232Z,89.99
2022-12-31T13:03:21.968Z,90.38
2022-12-31T13:05:57.259Z,91.61
2022-12-31T13:08:45.557Z,91.99
2022-12-31T13:11:28.661Z,91.57
2022-12-31T13:14:06.381Z,93.05
2022-12-31T13:16:46.335Z,92.15
2022-12-31T13:20:00.806Z,90.82
2022-12-31T13:22:56.319Z,87.63
2022-12-31T13:25:37.336Z,86.27
2022-12-31T13:28:09.857Z,86.34
2022-12-31T13:30:42.528Z,86.88
2022-12-31T13:33:23.852Z,88.62
2022-12-31T13:36:03.502Z,90.23
2022-12-31T13:38:36.663Z,89.03
2022-12-31T13:41:26.128Z,87.48
2022-12-31T13:44:11.109Z,87.40
2022-12-31T13:46:44.356Z,86.24
2022-12-31T13:49:33.628Z,85.83
2022-12-31T13:52:26.220Z,87.73
2022-12-31T13:55:09.397Z,87.80
2022-12-31T13:57:38.965Z,88.37
2022-12-31T14:00:14.371Z,89.26
2022-12-31T14:02:48.662Z,90.12
2022-12-31T14:05:30.334Z,93.37
2022-12-31T14:30:05.248Z,100.00
2022-12-31T14:32:44.050Z,100.00
2022-12-31T14:35:39.948Z,100.00
2022-12-31T14:38:15.404Z,100.00
2022-12-31T14:40:41.959Z,100.00
2022-12-31T14:43:11.478Z,100.00
2022-12-31T14:45:56.272Z,100.00
2022-12-31T14:48:44.298Z,100.00
2022-12-31T14:51:13.030Z,100.00
2022-12-31T14:53:39.773Z,100.00
2022-12-31T14:56:27.084Z,100.00
2022-12-31T14:58:59.401Z,100.00
2022-12-31T15:01:26.451Z,100.00
2022-12-31T15:03:58.412Z,100.00
2022-12-31T15:06:39.933Z,100.00
2022-12-31T15:09:40.272Z,100.00
2022-12-31T15:12:17.301Z,100.00
2022-12-31T15:15:02.515Z,100.00
2022-12-31T15:17:32.021Z,100.00
2022-12-31T15:20:18.415Z,100.00
2022-12-31T15:22:50.665Z,100.00
2022-12-31T15:25:28.630Z,100.00
2022-12-31T15:27:57.652Z,100.00
2022-12-31T15:30:49.633Z,100.00
2022-12-31T15:33:38.490Z,100.00
2022-12-31T15:36:35.735Z,100.00
2022-12-31T15:39:11.579Z,100.00
2022-12-31T15:42:27.294Z,100.00
2022-12-31T15:44:42.504Z,100.00
2022-12-31T15:47:17.842Z,100.00
2022-12-31T15:49:47.470Z,100.00
2022-12-31T15:52:20.778Z,100.00
2022-12-31T15:54:57.171Z,100.00
2022-12-31T15:57:32.733Z,100.00
2022-12-31T16:00:02.037Z,100.00
2022-12-31T16:02:31.756Z,100.00
2022-12-31T16:04:58.735Z,100.00
2022-12-31T16:07:27.861Z,100.00
2022-12-31T16:09:58.487Z,100.00
2022-12-31T16:12:33.555Z,100.00
2022-12-31T16:15:02.064Z,100.00
2022-12-31T16:17:36.885Z,100.00
2022-12-31T16:20:25.663Z,100.00
2022-12-31T16:23:01.510Z,100.00
2022-12-31T16:25:32.263Z,100.00
2022-12-31T16:28:03.435Z,100.00
2022-12-31T16:30:35.962Z,100.00
2022-12-31T16:33:05.459Z,100.00
2022-12-31T16:35:37.151Z,100.00
2022-12-31T16:38:15.652Z,100.00
2022-12-31T16:41:00.663Z,100.00
2022-12-31T16:43:34.676Z,100.00
2022-12-31T16:46:31.758Z,100.00
2022-12-31T16:49:02.922Z,100.00
2022-12-31T16:51:32.565Z,100.00
2022-12-31T16:54:01.376Z,100.00
2022-12-31T16:56:39.385Z,100.00
2022-12-31T16:59:29.296Z,100.00
2022-12-31T17:02:03.369Z,100.00
2022-12-31T17:04:30.385Z,100.00
2022-12-31T17:07:43.044Z,100.00
2022-12-31T17:10:09.591Z,100.00
2022-12-31T17:13:24.952Z,100.00
2022-12-31T17:15:42.786Z,100.00
2022-12-31T17:18:20.726Z,100.00
2022-12-31T17:20:50.043Z,100.00
2022-12-31T17:23:24.807Z,100.00
2022-12-31T17:26:02.610Z,100.00
2022-12-31T17:28:38.261Z,100.00
2022-12-31T17:31:32.633Z,100.00
2022-12-31T17:34:14.524Z,100.00
2022-12-31T17:36:54.424Z,100.00
2022-12-31T17:39:23.695Z,100.00
2022-12-31T17:41:53.117Z,100.00
2022-12-31T17:44:29.274Z,100.00
2022-12-31T17:46:56.006Z,100.00
2022-12-31T17:49:28.629Z,100.00
2022-12-31T17:51:55.424Z,100.00
2022-12-31T17:54:22.071Z,100.00
2022-12-31T17:56:48.883Z,100.00
2022-12-31T17:59:22.731Z,100.00
2022-12-31T18:01:49.974Z,100.00
2022-12-31T18:04:18.375Z,100.00
2022-12-31T18:06:45.529Z,100.00
2022-12-31T18:09:12.240Z,100.00
2022-12-31T18:11:40.219Z,100.00
2022-12-31T18:14:07.280Z,100.00
2022-12-31T18:16:34.319Z,100.00
2022-12-31T18:19:01.339Z,100.00
2022-12-31T18:21:30.679Z,100.00
2022-12-31T18:26:24.561Z,100.00
2022-12-31T18:28:54.492Z,100.00
2022-12-31T18:31:27.475Z,100.00
2022-12-31T18:33:56.271Z,100.00
2022-12-31T18:36:24.679Z,100.00
2022-12-31T18:43:11.427Z,100.00
2022-12-31T18:45:38.056Z,100.00
2022-12-31T18:48:04.764Z,100.00
2022-12-31T18:50:31.388Z,100.00
2022-12-31T18:52:58.011Z,100.00
2022-12-31T18:59:25.463Z,100.00
2022-12-31T19:06:14.232Z,100.00
2022-12-31T19:08:41.197Z,100.00
2022-12-31T19:11:13.711Z,100.00
2022-12-31T19:13:43.272Z,100.00
2022-12-31T19:16:35.725Z,100.00
2022-12-31T19:19:08.740Z,100.00
2022-12-31T19:21:35.478Z,100.00
2022-12-31T19:24:02.160Z,100.00
2022-12-31T19:26:29.739Z,100.00
2022-12-31T19:28:56.375Z,100.00
2022-12-31T19:31:23.032Z,100.00
2022-12-31T19:33:50.110Z,100.00
2022-12-31T19:36:18.469Z,100.00
2022-12-31T19:38:45.626Z,100.00
2022-12-31T19:41:18.339Z,100.00
2022-12-31T19:43:45.899Z,100.00
2022-12-31T19:46:19.731Z,100.00
2022-12-31T19:48:46.634Z,100.00
2022-12-31T19:51:18.918Z,100.00
2022-12-31T19:53:47.095Z,100.00
2022-12-31T19:56:17.699Z,100.00
2022-12-31T20:02:41.184Z,100.00
2022-12-31T20:05:10.406Z,100.00
2022-12-31T20:07:37.189Z,100.00
2022-12-31T20:10:05.357Z,100.00
2022-12-31T20:12:34.082Z,100.00
2022-12-31T20:16:07.425Z,100.00
2022-12-31T20:18:35.719Z,100.00
2022-12-31T20:21:02.317Z,100.00
2022-12-31T20:23:28.939Z,100.00
2022-12-31T20:25:59.520Z,100.00
2022-12-31T20:28:26.876Z,100.00
2022-12-31T20:30:53.807Z,100.00
2022-12-31T20:33:20.535Z,100.00
2022-12-31T20:35:47.123Z,100.00
2022-12-31T20:38:14.079Z,100.00
2022-12-31T20:40:46.473Z,100.00
2022-12-31T20:43:13.467Z,100.00
2022-12-31T20:45:41.088Z,100.00
2022-12-31T20:48:07.845Z,100.00
2022-12-31T20:50:34.508Z,100.00
2022-12-31T20:53:01.277Z,100.00
2022-12-31T20:55:27.909Z,100.00
2022-12-31T20:57:54.592Z,100.00
2022-12-31T21:00:21.361Z,100.00
2022-12-31T21:02:56.388Z,100.00
2022-12-31T21:05:27.352Z,100.00
2022-12-31T21:07:54.144Z,100.00
2022-12-31T21:10:20.753Z,100.00
2022-12-31T21:12:53.208Z,100.00
2022-12-31T21:15:20.675Z,100.00
2022-12-31T21:17:47.391Z,100.00
2022-12-31T21:20:14.014Z,100.00
2022-12-31T21:22:40.667Z,100.00
2022-12-31T21:25:07.643Z,100.00
2022-12-31T21:27:35.812Z,100.00
2022-12-31T21:30:18.163Z,100.00
2022-12-31T21:32:45.953Z,100.00
2022-12-31T21:35:41.594Z,100.00
2022-12-31T21:38:06.846Z,100.00
2022-12-31T21:40:34.247Z,100.00
2022-12-31T21:43:00.953Z,100.00
2022-12-31T21:45:27.672Z,100.00
2022-12-31T21:48:12.551Z,100.00
2022-12-31T21:50:39.163Z,100.00
2022-12-31T21:53:05.879Z,100.00
2022-12-31T21:55:51.048Z,100.00
2022-12-31T21:58:26.819Z,100.00
2022-12-31T22:01:14.775Z,100.00
2022-12-31T22:03:41.861Z,100.00
2022-12-31T22:06:14.605Z,100.00
2022-12-31T22:08:43.249Z,100.00
2022-12-31T22:11:11.611Z,100.00
2022-12-31T22:13:38.836Z,100.00
2022-12-31T22:16:06.449Z,100.00
2022-12-31T22:18:35.613Z,100.00
2022-12-31T22:21:09.630Z,100.00
2022-12-31T22:23:41.604Z,100.00
2022-12-31T22:26:11.049Z,100.00
2022-12-31T22:28:40.703Z,100.00
2022-12-31T22:31:14.794Z,100.00
2022-12-31T22:33:42.089Z,100.00
2022-12-31T22:36:12.613Z,100.00
2022-12-31T22:38:39.294Z,100.00
2022-12-31T22:41:07.641Z,100.00
2022-12-31T22:43:37.083Z,100.00
2022-12-31T22:46:25.981Z,100.00
2022-12-31T22:48:56.407Z,100.00
2022-12-31T22:51:23.088Z,100.00
2022-12-31T22:53:49.701Z,100.00
2022-12-31T22:56:18.078Z,100.00
2022-12-31T22:58:45.563Z,100.00
2022-12-31T23:01:24.440Z,100.00
2022-12-31T23:03:53.379Z,100.00
2022-12-31T23:06:22.100Z,100.00
2022-12-31T23:09:08.781Z,100.00
2022-12-31T23:11:37.354Z,100.00
2022-12-31T23:14:22.990Z,100.00
2022-12-31T23:17:31.578Z,100.00
2022-12-31T23:20:12.844Z,100.00
2022-12-31T23:22:57.795Z,100.00
2022-12-31T23:25:24.387Z,100.00
2022-12-31T23:27:51.039Z,100.00
2022-12-31T23:30:17.744Z,100.00
2022-12-31T23:32:44.338Z,100.00
2022-12-31T23:35:11.062Z,100.00
2022-12-31T23:37:37.665Z,100.00
2022-12-31T23:40:04.837Z,100.00
2022-12-31T23:42:31.413Z,100.00
2022-12-31T23:44:58.061Z,100.00
2022-12-31T23:47:24.731Z,100.00
2022-12-31T23:49:51.330Z,100.00
2022-12-31T23:52:17.994Z,100.00
2022-12-31T23:54:44.555Z,100.00
2022-12-31T23:57:11.225Z,100.00
2022-12-31T23:59:37.832Z,100.00
